Time;durP1;ratioP1;P1;durP2;ratioP2;P2;SDS_P1;SDS_P2;PMS_P1;PMS_P2;Temp;Humidity;BMP_temperature;BMP_pressure;BME280_temperature;BME280_humidity;BME280_pressure;Samples;Min_cycle;Max_cycle;Signal;HPM_P1;HPM_P2
2023/01/08 00:01:20;;;;;;;;;;;10.10;99.90;;;;;;4983311;28;20270;-67
2023/01/08 00:03:47;;;;;;;;;;;10.10;99.90;;;;;;4979153;28;20163;-68
2023/01/08 00:06:15;;;;;;;;;;;10.10;99.90;;;;;;4979799;28;19926;-68
2023/01/08 00:08:41;;;;;;;;;;;10.20;99.90;;;;;;4983607;28;19945;-69
2023/01/08 00:11:08;;;;;;;;;;;10.10;99.90;;;;;;4977143;28;20376;-69
2023/01/08 00:13:35;;;;;;;;;;;10.10;99.90;;;;;;4982925;28;19932;-68
2023/01/08 00:16:03;;;;;;;;;;;9.90;99.90;;;;;;4986497;28;19932;-68
2023/01/08 00:18:31;;;;;;;;;;;9.70;99.90;;;;;;4987080;28;19926;-68
2023/01/08 00:20:58;;;;;;;;;;;9.40;99.90;;;;;;4982667;28;19945;-68
2023/01/08 00:23:24;;;;;;;;;;;9.20;99.90;;;;;;4987002;28;19933;-68
2023/01/08 00:25:51;;;;;;;;;;;8.90;99.90;;;;;;4985228;28;20013;-68
2023/01/08 00:28:19;;;;;;;;;;;8.80;99.90;;;;;;4982488;28;20020;-67
2023/01/08 00:30:46;;;;;;;;;;;8.80;99.90;;;;;;4986412;28;19958;-68
2023/01/08 00:33:13;;;;;;;;;;;8.70;99.90;;;;;;4979142;28;19932;-68
2023/01/08 00:35:41;;;;;;;;;;;8.60;99.90;;;;;;4977548;28;20012;-68
2023/01/08 00:38:08;;;;;;;;;;;8.60;99.90;;;;;;4984015;28;19936;-68
2023/01/08 00:40:35;;;;;;;;;;;8.70;99.90;;;;;;4978731;28;19936;-68
2023/01/08 00:43:01;;;;;;;;;;;8.70;99.90;;;;;;4978921;28;19932;-68
2023/01/08 00:45:28;;;;;;;;;;;8.70;99.90;;;;;;4978626;28;20266;-68
2023/01/08 00:47:55;;;;;;;;;;;8.60;99.90;;;;;;4980042;28;20626;-68
2023/01/08 00:50:21;;;;;;;;;;;8.60;99.90;;;;;;4981278;28;19926;-68
2023/01/08 00:52:49;;;;;;;;;;;8.60;99.90;;;;;;4983038;28;19963;-68
2023/01/08 00:55:16;;;;;;;;;;;8.60;99.90;;;;;;4980338;28;19930;-68
2023/01/08 00:57:43;;;;;;;;;;;8.50;99.90;;;;;;4979855;28;20372;-68
2023/01/08 01:00:12;;;;;;;;;;;8.50;99.90;;;;;;4977679;28;20296;-68
2023/01/08 01:02:40;;;;;;;;;;;8.50;99.90;;;;;;4980332;28;19925;-68
2023/01/08 01:05:07;;;;;;;;;;;8.50;99.90;;;;;;4980585;28;19932;-67
2023/01/08 01:07:34;;;;;;;;;;;8.50;99.90;;;;;;4980526;28;19969;-67
2023/01/08 01:10:03;;;;;;;;;;;8.50;99.90;;;;;;4986055;28;19987;-68
2023/01/08 01:12:29;;;;;;;;;;;8.60;99.90;;;;;;4977867;28;20304;-69
2023/01/08 01:14:56;;;;;;;;;;;8.60;99.90;;;;;;4979394;28;19969;-69
2023/01/08 01:17:22;;;;;;;;;;;8.70;99.90;;;;;;4982580;28;19926;-69
2023/01/08 01:19:49;;;;;;;;;;;8.70;99.90;;;;;;4984440;28;19926;-68
2023/01/08 01:22:16;;;;;;;;;;;8.70;99.90;;;;;;4982992;28;20451;-69
2023/01/08 01:24:42;;;;;;;;;;;8.70;99.90;;;;;;4979545;28;19925;-69
2023/01/08 01:27:10;;;;;;;;;;;8.70;99.90;;;;;;4985000;28;19932;-69
2023/01/08 01:29:37;;;;;;;;;;;8.70;99.90;;;;;;4986038;28;19934;-69
2023/01/08 01:32:04;;;;;;;;;;;8.80;99.90;;;;;;4984975;28;19926;-69
2023/01/08 01:34:31;;;;;;;;;;;8.80;99.90;;;;;;4982749;28;19941;-69
2023/01/08 01:36:58;;;;;;;;;;;8.70;99.90;;;;;;4985329;28;19941;-69
2023/01/08 01:39:24;;;;;;;;;;;8.70;99.90;;;;;;4979092;28;20020;-69
2023/01/08 01:41:52;;;;;;;;;;;8.70;99.90;;;;;;4983812;28;19925;-69
2023/01/08 01:44:36;;;;;;;;;;;8.70;99.90;;;;;;4976478;28;19930;-69
2023/01/08 01:47:05;;;;;;;;;;;8.70;99.90;;;;;;4976361;28;19925;-69
2023/01/08 01:49:32;;;;;;;;;;;8.70;99.90;;;;;;4976004;28;19930;-69
2023/01/08 01:52:01;;;;;;;;;;;8.80;99.90;;;;;;4984549;28;19926;-69
2023/01/08 01:54:28;;;;;;;;;;;8.70;99.90;;;;;;4978589;28;19926;-69
2023/01/08 01:56:55;;;;;;;;;;;8.70;99.90;;;;;;4979237;28;20355;-69
2023/01/08 01:59:22;;;;;;;;;;;8.70;99.90;;;;;;4980054;28;19936;-68
2023/01/08 02:01:50;;;;;;;;;;;8.70;99.90;;;;;;4977756;28;20030;-68
2023/01/08 02:04:19;;;;;;;;;;;8.70;99.90;;;;;;4978136;28;20274;-69
2023/01/08 02:06:49;;;;;;;;;;;8.80;99.90;;;;;;4978039;28;20369;-68
2023/01/08 02:09:21;;;;;;;;;;;8.80;99.90;;;;;;4977426;28;20369;-69
2023/01/08 02:12:15;;;;;;;;;;;8.80;99.90;;;;;;4977692;28;19926;-69
2023/01/08 02:14:39;;;;;;;;;;;8.80;99.90;;;;;;4984596;28;19926;-69
2023/01/08 02:17:09;;;;;;;;;;;8.80;99.90;;;;;;4981276;28;19926;-69
2023/01/08 02:19:40;;;;;;;;;;;8.80;99.90;;;;;;4977306;28;19930;-69
2023/01/08 02:22:14;;;;;;;;;;;8.80;99.90;;;;;;4976943;28;20021;-69
2023/01/08 02:24:51;;;;;;;;;;;8.90;99.90;;;;;;4979540;28;20164;-68
2023/01/08 02:27:21;;;;;;;;;;;8.90;99.90;;;;;;4980890;28;20412;-69
2023/01/08 02:29:48;;;;;;;;;;;8.90;99.90;;;;;;4983845;28;19934;-69
2023/01/08 02:32:14;;;;;;;;;;;8.90;99.90;;;;;;4981559;28;19932;-69
2023/01/08 02:34:41;;;;;;;;;;;8.90;99.90;;;;;;4984870;28;19944;-68
2023/01/08 02:37:08;;;;;;;;;;;8.90;99.90;;;;;;4980410;28;19926;-68
2023/01/08 02:39:43;;;;;;;;;;;8.90;99.90;;;;;;4976388;28;19930;-68
2023/01/08 02:42:11;;;;;;;;;;;8.90;99.90;;;;;;4980197;28;19937;-69
2023/01/08 02:44:45;;;;;;;;;;;8.90;99.90;;;;;;4975641;28;19933;-69
2023/01/08 02:47:16;;;;;;;;;;;8.90;99.90;;;;;;4978951;28;19932;-68
2023/01/08 02:49:43;;;;;;;;;;;8.90;99.90;;;;;;4975751;28;19972;-69
2023/01/08 02:52:12;;;;;;;;;;;9.00;99.90;;;;;;4976237;28;19930;-69
2023/01/08 02:54:40;;;;;;;;;;;9.00;99.90;;;;;;4977187;28;19930;-69
2023/01/08 02:57:08;;;;;;;;;;;9.00;99.90;;;;;;4981736;28;19926;-69
2023/01/08 02:59:35;;;;;;;;;;;9.00;99.90;;;;;;4976220;28;19926;-69
2023/01/08 03:02:03;;;;;;;;;;;9.00;99.90;;;;;;4978097;28;19934;-69
2023/01/08 03:04:32;;;;;;;;;;;9.00;99.90;;;;;;4980859;28;19969;-69
2023/01/08 03:06:59;;;;;;;;;;;9.00;99.90;;;;;;4979008;28;19929;-69
2023/01/08 03:09:26;;;;;;;;;;;9.00;99.90;;;;;;4982194;28;19926;-69
2023/01/08 03:11:54;;;;;;;;;;;8.90;99.90;;;;;;4980525;28;19949;-69
2023/01/08 03:14:23;;;;;;;;;;;8.90;99.90;;;;;;4979146;28;20012;-69
2023/01/08 03:16:52;;;;;;;;;;;8.80;99.90;;;;;;4981295;28;19934;-69
2023/01/08 03:19:22;;;;;;;;;;;8.80;99.90;;;;;;4980681;28;19932;-69
2023/01/08 03:21:50;;;;;;;;;;;8.80;99.90;;;;;;4985458;28;19930;-69
2023/01/08 03:24:18;;;;;;;;;;;8.80;99.90;;;;;;4985234;28;20342;-69
2023/01/08 03:26:46;;;;;;;;;;;8.80;99.90;;;;;;4984524;28;19995;-69
2023/01/08 03:29:14;;;;;;;;;;;8.80;99.90;;;;;;4983608;28;20350;-68
2023/01/08 03:31:42;;;;;;;;;;;8.80;99.90;;;;;;4983514;28;19940;-67
2023/01/08 03:34:10;;;;;;;;;;;8.80;99.90;;;;;;4980242;28;19934;-68
2023/01/08 03:36:40;;;;;;;;;;;8.80;99.90;;;;;;4980649;28;20392;-69
2023/01/08 03:39:08;;;;;;;;;;;8.80;99.90;;;;;;4983168;28;20033;-68
2023/01/08 03:41:36;;;;;;;;;;;8.80;99.90;;;;;;4984319;28;19965;-68
2023/01/08 03:44:03;;;;;;;;;;;8.70;99.90;;;;;;4982665;28;19926;-68
2023/01/08 03:46:32;;;;;;;;;;;8.70;99.90;;;;;;4980468;28;20494;-68
2023/01/08 03:48:59;;;;;;;;;;;8.70;99.90;;;;;;4982216;28;20032;-68
2023/01/08 03:51:26;;;;;;;;;;;8.70;99.90;;;;;;4986612;28;19940;-67
2023/01/08 03:53:57;;;;;;;;;;;8.70;99.90;;;;;;4987987;28;20024;-67
2023/01/08 03:56:24;;;;;;;;;;;8.70;99.90;;;;;;4981170;28;20373;-67
2023/01/08 03:58:51;;;;;;;;;;;8.60;99.90;;;;;;4981509;28;19977;-67
2023/01/08 04:01:17;;;;;;;;;;;8.60;99.90;;;;;;4980004;28;19925;-68
2023/01/08 04:03:44;;;;;;;;;;;8.60;99.90;;;;;;4985159;28;19932;-67
2023/01/08 04:06:11;;;;;;;;;;;8.60;99.90;;;;;;4981620;28;20005;-67
2023/01/08 04:08:37;;;;;;;;;;;8.60;99.90;;;;;;4979951;28;19930;-67
2023/01/08 04:11:06;;;;;;;;;;;8.50;99.90;;;;;;4981321;28;19930;-67
2023/01/08 04:13:32;;;;;;;;;;;8.50;99.90;;;;;;4981589;28;19930;-67
2023/01/08 04:15:59;;;;;;;;;;;8.50;99.90;;;;;;4983253;28;20336;-67
2023/01/08 04:18:25;;;;;;;;;;;8.50;99.90;;;;;;4981675;28;19926;-67
2023/01/08 04:20:52;;;;;;;;;;;8.50;99.90;;;;;;4978851;28;19932;-67
2023/01/08 04:23:19;;;;;;;;;;;8.50;99.90;;;;;;4978011;28;19936;-67
2023/01/08 04:25:45;;;;;;;;;;;8.40;99.90;;;;;;4986778;28;21091;-67
2023/01/08 04:28:13;;;;;;;;;;;8.40;99.90;;;;;;4985607;28;20339;-67
2023/01/08 04:30:40;;;;;;;;;;;8.30;99.90;;;;;;4983281;28;20020;-67
2023/01/08 04:33:07;;;;;;;;;;;8.20;99.90;;;;;;4984610;28;19925;-67
2023/01/08 04:35:33;;;;;;;;;;;8.20;99.90;;;;;;4978684;28;19932;-67
2023/01/08 04:38:00;;;;;;;;;;;8.10;99.90;;;;;;4979503;28;19926;-67
2023/01/08 04:40:27;;;;;;;;;;;8.00;99.90;;;;;;4980817;28;20032;-67
2023/01/08 04:42:53;;;;;;;;;;;7.90;99.90;;;;;;4977217;28;19926;-67
2023/01/08 04:45:21;;;;;;;;;;;7.80;99.90;;;;;;4983584;28;19932;-68
2023/01/08 04:47:48;;;;;;;;;;;7.70;99.90;;;;;;4982795;28;20303;-68
2023/01/08 04:50:15;;;;;;;;;;;7.60;99.90;;;;;;4981265;28;20368;-68
2023/01/08 04:52:41;;;;;;;;;;;7.60;99.90;;;;;;4981131;28;19926;-68
2023/01/08 04:55:08;;;;;;;;;;;7.40;99.90;;;;;;4979661;28;19948;-68
2023/01/08 04:57:35;;;;;;;;;;;7.40;99.90;;;;;;4982156;28;19930;-68
2023/01/08 05:00:01;;;;;;;;;;;7.40;99.90;;;;;;4979305;28;19932;-68
2023/01/08 05:02:29;;;;;;;;;;;7.40;99.90;;;;;;4980527;28;20276;-68
2023/01/08 05:04:56;;;;;;;;;;;7.30;99.90;;;;;;4980502;28;20433;-68
2023/01/08 05:07:23;;;;;;;;;;;7.30;99.90;;;;;;4986742;28;20032;-68
2023/01/08 05:09:49;;;;;;;;;;;7.20;99.90;;;;;;4983877;28;20063;-68
2023/01/08 05:12:16;;;;;;;;;;;7.20;99.90;;;;;;4979362;28;19932;-68
2023/01/08 05:14:43;;;;;;;;;;;7.20;99.90;;;;;;4979454;28;19976;-69
2023/01/08 05:17:10;;;;;;;;;;;7.20;99.90;;;;;;4979479;28;19926;-68
2023/01/08 05:19:38;;;;;;;;;;;7.20;99.90;;;;;;4978982;28;19936;-68
2023/01/08 05:22:04;;;;;;;;;;;7.10;99.90;;;;;;4978628;28;20496;-68
2023/01/08 05:24:31;;;;;;;;;;;7.10;99.90;;;;;;4979217;28;20020;-68
2023/01/08 05:26:58;;;;;;;;;;;7.10;99.90;;;;;;4985620;28;19929;-68
2023/01/08 05:29:24;;;;;;;;;;;7.10;99.90;;;;;;4978080;28;19957;-68
2023/01/08 05:31:51;;;;;;;;;;;7.10;99.90;;;;;;4982445;28;19926;-68
2023/01/08 05:34:18;;;;;;;;;;;7.10;99.90;;;;;;4982960;28;19933;-68
2023/01/08 05:36:46;;;;;;;;;;;7.00;99.90;;;;;;4977989;28;20459;-68
2023/01/08 05:39:12;;;;;;;;;;;7.00;99.90;;;;;;4984714;28;19933;-69
2023/01/08 05:41:39;;;;;;;;;;;7.00;99.90;;;;;;4983380;28;20343;-69
2023/01/08 05:44:06;;;;;;;;;;;7.00;99.90;;;;;;4978320;28;19925;-68
2023/01/08 05:46:32;;;;;;;;;;;7.00;99.90;;;;;;4978276;28;19971;-68
2023/01/08 05:48:59;;;;;;;;;;;6.90;99.90;;;;;;4979350;28;20377;-69
2023/01/08 05:51:26;;;;;;;;;;;7.00;99.90;;;;;;4978300;28;19940;-68
2023/01/08 05:53:54;;;;;;;;;;;7.00;99.90;;;;;;4978611;28;20010;-69
2023/01/08 05:56:21;;;;;;;;;;;6.90;99.90;;;;;;4982352;28;19929;-69
2023/01/08 05:58:47;;;;;;;;;;;6.90;99.90;;;;;;4977038;28;19926;-68
2023/01/08 06:01:15;;;;;;;;;;;6.90;99.90;;;;;;4979063;28;19932;-68
2023/01/08 06:03:42;;;;;;;;;;;6.90;99.90;;;;;;4978899;28;19987;-69
2023/01/08 06:06:10;;;;;;;;;;;6.90;99.90;;;;;;4977718;28;19925;-68
2023/01/08 06:08:39;;;;;;;;;;;6.90;99.90;;;;;;4980072;28;19930;-69
2023/01/08 06:11:08;;;;;;;;;;;6.90;99.90;;;;;;4979249;28;19938;-69
2023/01/08 06:13:36;;;;;;;;;;;6.90;99.90;;;;;;4982467;28;19969;-70
2023/01/08 06:16:03;;;;;;;;;;;6.90;99.90;;;;;;4984770;28;19932;-66
2023/01/08 06:18:30;;;;;;;;;;;6.80;99.90;;;;;;4980172;28;19926;-68
2023/01/08 06:20:57;;;;;;;;;;;6.80;99.90;;;;;;4978768;28;19934;-70
2023/01/08 06:23:23;;;;;;;;;;;6.80;99.90;;;;;;4980920;28;20394;-69
2023/01/08 06:25:51;;;;;;;;;;;6.80;99.90;;;;;;4980964;28;19926;-69
2023/01/08 06:28:19;;;;;;;;;;;6.80;99.90;;;;;;4981422;28;19926;-69
2023/01/08 06:30:46;;;;;;;;;;;6.80;99.90;;;;;;4977026;28;20391;-69
2023/01/08 06:33:13;;;;;;;;;;;6.80;99.90;;;;;;4978154;28;20353;-70
2023/01/08 06:35:39;;;;;;;;;;;6.80;99.90;;;;;;4979575;28;19932;-68
2023/01/08 06:38:06;;;;;;;;;;;6.80;99.90;;;;;;4979034;28;19926;-69
2023/01/08 06:40:33;;;;;;;;;;;6.90;99.90;;;;;;4977011;28;19925;-69
2023/01/08 06:43:01;;;;;;;;;;;6.90;99.90;;;;;;4978748;28;20016;-69
2023/01/08 06:45:29;;;;;;;;;;;6.90;99.90;;;;;;4977156;28;19945;-68
2023/01/08 06:47:55;;;;;;;;;;;6.90;99.90;;;;;;4978474;28;20223;-69
2023/01/08 06:50:22;;;;;;;;;;;6.90;99.90;;;;;;4976545;28;19933;-67
2023/01/08 06:52:52;;;;;;;;;;;6.80;99.90;;;;;;4981258;28;20029;-67
2023/01/08 06:55:19;;;;;;;;;;;6.90;99.90;;;;;;4979887;28;19933;-68
2023/01/08 06:57:46;;;;;;;;;;;6.90;99.90;;;;;;4985278;28;19930;-69
2023/01/08 07:00:13;;;;;;;;;;;6.80;99.90;;;;;;4986852;28;19934;-68
2023/01/08 07:02:41;;;;;;;;;;;6.80;99.90;;;;;;4988193;28;20021;-68
2023/01/08 07:05:08;;;;;;;;;;;6.90;99.90;;;;;;4985593;28;20273;-68
2023/01/08 07:07:35;;;;;;;;;;;6.90;99.90;;;;;;4987205;28;19980;-69
2023/01/08 07:10:01;;;;;;;;;;;6.90;99.90;;;;;;4991785;28;19969;-68
2023/01/08 07:12:28;;;;;;;;;;;7.00;99.90;;;;;;4982677;28;19932;-68
2023/01/08 07:14:55;;;;;;;;;;;7.00;99.90;;;;;;4978715;28;19930;-69
2023/01/08 07:17:21;;;;;;;;;;;7.10;99.90;;;;;;4983179;28;20407;-69
2023/01/08 07:19:49;;;;;;;;;;;7.20;99.90;;;;;;4979272;28;20403;-69
2023/01/08 07:22:16;;;;;;;;;;;7.30;99.90;;;;;;4980506;28;19926;-69
2023/01/08 07:24:43;;;;;;;;;;;7.30;99.90;;;;;;4979164;28;19930;-68
2023/01/08 07:27:09;;;;;;;;;;;7.30;99.90;;;;;;4986479;28;20030;-69
2023/01/08 07:29:36;;;;;;;;;;;7.40;99.90;;;;;;4986141;28;19929;-69
2023/01/08 07:32:03;;;;;;;;;;;7.40;99.90;;;;;;4984087;28;19933;-69
2023/01/08 07:34:29;;;;;;;;;;;7.40;99.90;;;;;;4984950;28;19930;-68
2023/01/08 07:36:58;;;;;;;;;;;7.50;99.90;;;;;;4984329;28;20056;-68
2023/01/08 07:39:24;;;;;;;;;;;7.50;99.90;;;;;;4985404;28;19933;-69
2023/01/08 07:41:51;;;;;;;;;;;7.50;99.90;;;;;;4986795;28;19933;-69
2023/01/08 07:44:18;;;;;;;;;;;7.50;99.90;;;;;;4982167;28;19926;-69
2023/01/08 07:46:44;;;;;;;;;;;7.50;99.90;;;;;;4986987;28;19979;-69
2023/01/08 07:49:11;;;;;;;;;;;7.50;99.90;;;;;;4982743;28;19929;-68
2023/01/08 07:51:38;;;;;;;;;;;7.60;99.90;;;;;;4982268;28;19929;-68
2023/01/08 07:54:06;;;;;;;;;;;7.60;99.90;;;;;;4985459;28;20025;-69
2023/01/08 07:56:33;;;;;;;;;;;7.60;99.90;;;;;;4980738;28;19926;-70
2023/01/08 07:59:00;;;;;;;;;;;7.50;99.90;;;;;;4981530;28;20319;-70
2023/01/08 08:01:27;;;;;;;;;;;7.50;99.90;;;;;;4981543;28;20288;-69
2023/01/08 08:03:53;;;;;;;;;;;7.60;99.90;;;;;;4982743;28;19980;-69
2023/01/08 08:06:20;;;;;;;;;;;7.50;99.90;;;;;;4980828;28;19926;-68
2023/01/08 08:08:47;;;;;;;;;;;7.50;99.90;;;;;;4980024;28;19934;-69
2023/01/08 08:11:15;;;;;;;;;;;7.50;99.90;;;;;;4986704;28;19926;-69
2023/01/08 08:13:43;;;;;;;;;;;7.40;99.90;;;;;;4981045;28;20017;-69
2023/01/08 08:16:11;;;;;;;;;;;7.40;99.90;;;;;;4981957;28;19933;-69
2023/01/08 08:18:37;;;;;;;;;;;7.40;99.90;;;;;;4978091;28;19926;-72
2023/01/08 08:21:05;;;;;;;;;;;7.40;99.90;;;;;;4982193;28;19926;-71
2023/01/08 08:23:32;;;;;;;;;;;7.40;99.90;;;;;;4987694;28;19930;-72
2023/01/08 08:25:59;;;;;;;;;;;7.40;99.90;;;;;;4986252;28;19934;-71
2023/01/08 08:28:27;;;;;;;;;;;7.40;99.90;;;;;;4982976;28;20028;-71
2023/01/08 08:30:53;;;;;;;;;;;7.30;99.90;;;;;;4987072;28;20293;-72
2023/01/08 08:33:20;;;;;;;;;;;7.30;99.90;;;;;;4984369;28;19937;-72
2023/01/08 08:35:48;;;;;;;;;;;7.30;99.90;;;;;;4988567;28;20024;-72
2023/01/08 08:38:15;;;;;;;;;;;7.30;99.90;;;;;;4983304;28;19936;-73
2023/01/08 08:40:41;;;;;;;;;;;7.30;99.90;;;;;;4989318;28;20284;-73
2023/01/08 08:43:09;;;;;;;;;;;7.30;99.90;;;;;;4984817;28;20307;-72
2023/01/08 08:45:37;;;;;;;;;;;7.30;99.90;;;;;;4985227;28;19932;-72
2023/01/08 08:48:05;;;;;;;;;;;7.30;99.90;;;;;;4984335;28;20400;-72
2023/01/08 08:50:32;;;;;;;;;;;7.30;99.90;;;;;;4983767;28;20403;-73
2023/01/08 08:52:59;;;;;;;;;;;7.30;99.90;;;;;;4983346;28;20303;-73
2023/01/08 08:55:25;;;;;;;;;;;7.30;99.90;;;;;;4984403;28;19948;-72
2023/01/08 08:57:52;;;;;;;;;;;7.30;99.90;;;;;;4984405;28;19932;-69
2023/01/08 09:00:19;;;;;;;;;;;7.30;99.90;;;;;;4983869;28;19938;-72
2023/01/08 09:02:49;;;;;;;;;;;7.40;99.90;;;;;;4984052;28;19936;-72
2023/01/08 09:05:16;;;;;;;;;;;7.40;99.90;;;;;;4980136;28;20025;-72
2023/01/08 09:07:43;;;;;;;;;;;7.40;99.90;;;;;;4979268;28;19930;-72
2023/01/08 09:10:10;;;;;;;;;;;8.20;99.90;;;;;;4987048;28;19926;-71
2023/01/08 09:12:36;;;;;;;;;;;9.60;99.90;;;;;;4979324;28;19933;-72
2023/01/08 09:15:04;;;;;;;;;;;10.60;99.90;;;;;;4979943;28;19932;-72
2023/01/08 09:17:30;;;;;;;;;;;11.10;99.90;;;;;;4986443;28;19926;-71
2023/01/08 09:19:58;;;;;;;;;;;12.00;99.90;;;;;;4988771;28;19926;-72
2023/01/08 09:22:25;;;;;;;;;;;12.30;99.90;;;;;;4989645;28;20372;-73
2023/01/08 09:24:53;;;;;;;;;;;12.50;99.90;;;;;;4990923;28;19926;-72
2023/01/08 09:27:20;;;;;;;;;;;12.50;99.90;;;;;;4987907;28;19926;-72
2023/01/08 09:29:47;;;;;;;;;;;12.20;99.90;;;;;;4989722;28;20017;-72
2023/01/08 09:32:14;;;;;;;;;;;11.30;99.90;;;;;;4987050;28;20359;-72
2023/01/08 09:34:40;;;;;;;;;;;10.20;99.90;;;;;;4985975;28;20303;-74
2023/01/08 09:37:08;;;;;;;;;;;9.20;99.90;;;;;;4992197;28;19932;-73
2023/01/08 09:39:35;;;;;;;;;;;8.80;99.90;;;;;;4988212;28;20021;-73
2023/01/08 09:42:04;;;;;;;;;;;8.70;99.90;;;;;;4992608;28;19936;-73
2023/01/08 09:44:33;;;;;;;;;;;8.60;99.90;;;;;;4985540;28;19948;-73
2023/01/08 09:47:00;;;;;;;;;;;8.50;99.90;;;;;;4985502;28;19926;-74
2023/01/08 09:49:32;;;;;;;;;;;8.50;99.90;;;;;;4986691;28;19926;-74
2023/01/08 09:51:59;;;;;;;;;;;8.50;99.90;;;;;;4984977;28;20298;-74
2023/01/08 09:54:27;;;;;;;;;;;8.50;99.90;;;;;;4988883;28;19949;-74
2023/01/08 09:56:54;;;;;;;;;;;8.60;99.90;;;;;;4985228;28;19930;-73
2023/01/08 09:59:21;;;;;;;;;;;8.60;99.90;;;;;;4988519;28;20388;-74
2023/01/08 10:01:47;;;;;;;;;;;8.60;99.90;;;;;;4985367;28;19933;-73
2023/01/08 10:04:15;;;;;;;;;;;8.70;99.90;;;;;;4988816;28;19955;-73
2023/01/08 10:06:46;;;;;;;;;;;8.70;99.90;;;;;;4991681;28;19933;-73
2023/01/08 10:09:14;;;;;;;;;;;8.80;99.90;;;;;;4996021;28;19926;-74
2023/01/08 10:11:44;;;;;;;;;;;8.80;99.90;;;;;;4986949;28;19968;-73
2023/01/08 10:14:17;;;;;;;;;;;8.80;99.90;;;;;;4988703;28;19925;-73
2023/01/08 10:16:44;;;;;;;;;;;8.80;99.90;;;;;;4989937;28;20300;-73
2023/01/08 10:19:11;;;;;;;;;;;8.80;99.90;;;;;;4987704;28;19933;-72
2023/01/08 10:21:39;;;;;;;;;;;8.80;99.90;;;;;;4989352;28;19979;-71
2023/01/08 10:24:06;;;;;;;;;;;8.90;99.90;;;;;;4986137;28;19926;-73
2023/01/08 10:26:35;;;;;;;;;;;8.90;99.90;;;;;;4985935;28;19930;-74
2023/01/08 10:29:11;;;;;;;;;;;9.00;99.90;;;;;;4984647;28;19932;-73
2023/01/08 10:31:43;;;;;;;;;;;9.00;99.90;;;;;;4982956;28;19936;-74
2023/01/08 10:34:10;;;;;;;;;;;9.10;99.90;;;;;;4985970;28;20016;-74
2023/01/08 10:36:40;;;;;;;;;;;9.20;99.90;;;;;;4987053;28;20405;-74
2023/01/08 10:39:07;;;;;;;;;;;9.30;99.90;;;;;;4986162;28;20016;-74
2023/01/08 10:41:38;;;;;;;;;;;9.30;99.90;;;;;;4975492;28;19933;-75
2023/01/08 10:44:06;;;;;;;;;;;9.30;99.90;;;;;;4985247;28;19933;-74
2023/01/08 10:46:36;;;;;;;;;;;9.30;99.90;;;;;;4984901;28;19932;-75
2023/01/08 10:49:04;;;;;;;;;;;9.30;99.90;;;;;;4989980;28;19971;-74
2023/01/08 10:51:31;;;;;;;;;;;9.40;99.90;;;;;;4986418;28;19961;-73
2023/01/08 10:53:59;;;;;;;;;;;9.40;99.90;;;;;;4985979;28;19998;-73
2023/01/08 10:56:27;;;;;;;;;;;9.40;99.90;;;;;;4985951;28;19926;-74
2023/01/08 10:58:54;;;;;;;;;;;9.50;99.90;;;;;;4982735;28;19929;-75
2023/01/08 11:01:23;;;;;;;;;;;9.50;99.90;;;;;;4986112;28;20013;-74
2023/01/08 11:03:52;;;;;;;;;;;9.60;99.90;;;;;;4982180;28;22186;-74
2023/01/08 11:06:20;;;;;;;;;;;9.60;99.90;;;;;;4984043;28;20005;-74
2023/01/08 11:08:51;;;;;;;;;;;9.70;99.90;;;;;;4978902;28;19933;-74
2023/01/08 11:11:18;;;;;;;;;;;9.70;99.90;;;;;;4982637;28;19930;-75
2023/01/08 11:13:51;;;;;;;;;;;9.70;99.90;;;;;;4973382;28;20444;-74
2023/01/08 11:16:18;;;;;;;;;;;9.70;99.90;;;;;;4973798;28;20409;-74
2023/01/08 11:18:47;;;;;;;;;;;9.60;99.90;;;;;;4981467;28;20014;-73
2023/01/08 11:21:20;;;;;;;;;;;9.60;99.90;;;;;;4982783;28;20017;-73
2023/01/08 11:23:48;;;;;;;;;;;9.60;99.90;;;;;;4982094;28;19925;-73
2023/01/08 11:26:17;;;;;;;;;;;9.70;99.90;;;;;;4983012;28;19933;-74
2023/01/08 11:28:47;;;;;;;;;;;9.70;99.90;;;;;;4981709;28;19929;-75
2023/01/08 11:31:18;;;;;;;;;;;9.70;99.90;;;;;;5004360;28;19946;-73
2023/01/08 11:33:45;;;;;;;;;;;9.70;99.90;;;;;;5001596;28;19930;-73
2023/01/08 11:36:15;;;;;;;;;;;9.70;99.90;;;;;;4988058;28;19926;-74
2023/01/08 11:38:43;;;;;;;;;;;9.80;99.90;;;;;;4989401;28;19930;-73
2023/01/08 11:41:20;;;;;;;;;;;9.80;99.90;;;;;;4990512;28;19932;-73
2023/01/08 11:43:54;;;;;;;;;;;9.90;99.90;;;;;;4989345;28;19926;-73
2023/01/08 11:46:26;;;;;;;;;;;9.90;99.90;;;;;;4991658;28;20029;-73
2023/01/08 11:49:03;;;;;;;;;;;9.90;99.90;;;;;;4993830;28;19926;-74
2023/01/08 11:51:36;;;;;;;;;;;9.90;99.90;;;;;;4988937;28;19926;-72
2023/01/08 11:54:11;;;;;;;;;;;9.90;99.90;;;;;;4983805;28;19980;-71
2023/01/08 11:56:47;;;;;;;;;;;9.90;99.90;;;;;;4986677;28;19994;-71
2023/01/08 11:59:18;;;;;;;;;;;10.10;99.90;;;;;;4985435;28;19925;-73
2023/01/08 12:01:49;;;;;;;;;;;10.00;99.90;;;;;;4987667;28;19934;-71
2023/01/08 12:04:23;;;;;;;;;;;9.90;99.90;;;;;;4987687;28;19965;-72
2023/01/08 12:06:54;;;;;;;;;;;9.90;99.90;;;;;;4989563;28;19977;-72
2023/01/08 12:09:29;;;;;;;;;;;9.90;99.90;;;;;;4990055;28;19936;-73
2023/01/08 12:12:00;;;;;;;;;;;9.80;99.90;;;;;;4995358;28;19924;-67
2023/01/08 12:14:42;;;;;;;;;;;9.70;99.90;;;;;;4989837;28;19933;-68
2023/01/08 12:17:16;;;;;;;;;;;9.70;99.90;;;;;;5004114;28;19926;-68
2023/01/08 12:19:52;;;;;;;;;;;9.70;99.90;;;;;;4989968;28;20012;-69
2023/01/08 12:22:27;;;;;;;;;;;9.80;99.90;;;;;;5010997;28;19936;-69
2023/01/08 12:25:16;;;;;;;;;;;9.70;99.90;;;;;;4990435;28;19979;-68
2023/01/08 12:27:46;;;;;;;;;;;9.70;99.90;;;;;;4985674;28;19986;-69
2023/01/08 12:30:17;;;;;;;;;;;9.70;99.90;;;;;;4984868;28;19964;-70
2023/01/08 12:32:46;;;;;;;;;;;9.60;99.90;;;;;;4981836;28;19926;-72
2023/01/08 12:35:14;;;;;;;;;;;9.60;99.90;;;;;;4982745;28;19925;-73
2023/01/08 12:37:44;;;;;;;;;;;9.70;99.90;;;;;;4983763;28;20661;-72
2023/01/08 12:40:17;;;;;;;;;;;9.80;99.90;;;;;;4988195;28;19948;-72
2023/01/08 12:42:45;;;;;;;;;;;9.60;99.90;;;;;;4985146;28;20012;-71
2023/01/08 12:45:17;;;;;;;;;;;9.70;99.90;;;;;;4981875;28;19938;-74
2023/01/08 12:47:48;;;;;;;;;;;9.70;99.90;;;;;;4987545;28;20016;-72
2023/01/08 12:50:27;;;;;;;;;;;9.70;99.90;;;;;;4984294;28;19933;-73
2023/01/08 12:52:56;;;;;;;;;;;9.60;99.90;;;;;;4987588;28;20303;-74
2023/01/08 12:55:32;;;;;;;;;;;9.50;99.90;;;;;;4984482;28;19942;-74
2023/01/08 12:58:04;;;;;;;;;;;9.60;99.90;;;;;;4985988;28;19932;-71
2023/01/08 13:00:35;;;;;;;;;;;9.70;99.90;;;;;;4981766;28;19926;-73
2023/01/08 13:03:02;;;;;;;;;;;9.70;99.90;;;;;;4984844;28;19934;-74
2023/01/08 13:05:31;;;;;;;;;;;9.70;99.90;;;;;;4987065;28;19976;-73
2023/01/08 13:07:59;;;;;;;;;;;9.70;99.90;;;;;;4990237;28;19956;-72
2023/01/08 13:10:32;;;;;;;;;;;9.90;99.90;;;;;;4986934;28;19926;-73
2023/01/08 13:13:00;;;;;;;;;;;9.90;99.90;;;;;;4987656;28;20506;-73
2023/01/08 13:15:27;;;;;;;;;;;9.90;99.90;;;;;;4987632;28;19926;-73
2023/01/08 13:17:55;;;;;;;;;;;10.00;99.90;;;;;;4988700;28;20005;-73
2023/01/08 13:20:24;;;;;;;;;;;9.90;99.90;;;;;;4987998;28;20292;-74
2023/01/08 13:22:53;;;;;;;;;;;9.90;99.90;;;;;;4988852;28;19926;-73
2023/01/08 13:25:28;;;;;;;;;;;9.90;99.90;;;;;;4987196;28;19930;-73
2023/01/08 13:27:57;;;;;;;;;;;9.90;99.90;;;;;;4986359;28;20443;-73
2023/01/08 13:30:35;;;;;;;;;;;10.00;99.90;;;;;;4985104;28;20025;-73
2023/01/08 13:33:02;;;;;;;;;;;10.00;99.90;;;;;;4983589;28;19926;-73
2023/01/08 13:35:30;;;;;;;;;;;10.00;99.90;;;;;;4984655;28;19933;-73
2023/01/08 13:38:13;;;;;;;;;;;9.90;99.90;;;;;;4984623;28;20392;-73
2023/01/08 13:40:52;;;;;;;;;;;9.90;99.90;;;;;;4987339;28;19949;-74
2023/01/08 13:43:21;;;;;;;;;;;9.70;99.90;;;;;;4983788;28;20018;-74
2023/01/08 13:45:53;;;;;;;;;;;9.70;99.90;;;;;;4982191;28;19934;-73
2023/01/08 13:48:21;;;;;;;;;;;9.80;99.90;;;;;;4982698;28;20368;-73
2023/01/08 13:50:49;;;;;;;;;;;9.80;99.90;;;;;;4978336;28;20397;-72
2023/01/08 13:53:15;;;;;;;;;;;9.90;99.90;;;;;;4982373;28;19934;-72
2023/01/08 13:55:46;;;;;;;;;;;9.90;99.90;;;;;;4989894;28;20371;-72
2023/01/08 13:58:15;;;;;;;;;;;9.90;99.90;;;;;;4974062;28;20016;-72
2023/01/08 14:00:46;;;;;;;;;;;9.90;99.90;;;;;;4980063;28;20020;-72
2023/01/08 14:03:21;;;;;;;;;;;10.00;99.90;;;;;;4983085;28;19925;-73
2023/01/08 14:05:50;;;;;;;;;;;9.90;99.90;;;;;;4982441;28;19926;-71
2023/01/08 14:08:23;;;;;;;;;;;10.00;99.90;;;;;;4974964;28;19971;-68
2023/01/08 14:10:50;;;;;;;;;;;9.90;99.90;;;;;;4979435;28;20353;-68
2023/01/08 14:13:17;;;;;;;;;;;9.80;99.90;;;;;;4976092;28;20012;-72
2023/01/08 14:15:46;;;;;;;;;;;9.70;99.90;;;;;;4988994;28;19926;-71
2023/01/08 14:18:13;;;;;;;;;;;9.70;99.90;;;;;;4984614;28;20406;-71
2023/01/08 14:20:41;;;;;;;;;;;9.80;99.90;;;;;;4983228;28;19940;-71
2023/01/08 14:23:11;;;;;;;;;;;9.80;99.90;;;;;;4982120;28;19948;-72
2023/01/08 14:25:38;;;;;;;;;;;9.80;99.90;;;;;;4981848;28;20372;-72
2023/01/08 14:28:05;;;;;;;;;;;9.80;99.90;;;;;;4984650;28;20177;-72
2023/01/08 14:30:34;;;;;;;;;;;9.80;99.90;;;;;;4977875;28;19969;-72
2023/01/08 14:33:02;;;;;;;;;;;9.80;99.90;;;;;;4977180;28;19934;-71
2023/01/08 14:35:31;;;;;;;;;;;9.90;99.90;;;;;;4983309;28;20307;-72